createdAt,value
2022-10-08T00:00:20.848Z,15.16
2022-10-08T00:03:30.954Z,15.02
2022-10-08T00:06:37.121Z,15.09
2022-10-08T00:09:42.444Z,14.87
2022-10-08T00:12:48.246Z,15.01
2022-10-08T00:15:54.640Z,15.17
2022-10-08T00:19:06.274Z,15.19
2022-10-08T00:22:11.720Z,15.02
2022-10-08T00:25:17.009Z,15.05
2022-10-08T00:28:22.477Z,15.13
2022-10-08T00:31:32.579Z,15.01
2022-10-08T00:34:38.480Z,15.02
2022-10-08T00:37:43.529Z,15.02
2022-10-08T00:40:49.077Z,14.77
2022-10-08T00:44:03.422Z,14.80
2022-10-08T00:47:46.676Z,14.82
2022-10-08T00:50:52.687Z,14.82
2022-10-08T00:54:00.699Z,14.83
2022-10-08T00:57:06.762Z,14.79
2022-10-08T01:00:18.661Z,14.87
2022-10-08T01:03:24.217Z,14.74
2022-10-08T01:06:32.749Z,14.70
2022-10-08T01:10:10.164Z,14.71
2022-10-08T01:13:43.503Z,14.77
2022-10-08T01:16:48.853Z,14.92
2022-10-08T01:20:35.901Z,14.76
2022-10-08T01:24:12.538Z,14.62
2022-10-08T01:27:35.121Z,14.65
2022-10-08T01:30:48.199Z,14.60
2022-10-08T01:33:59.671Z,14.63
2022-10-08T01:37:10.903Z,14.52
2022-10-08T01:40:24.392Z,14.44
2022-10-08T01:43:35.341Z,14.39
2022-10-08T01:46:44.953Z,14.39
2022-10-08T01:50:00.579Z,14.30
2022-10-08T01:53:12.042Z,14.28
2022-10-08T01:56:20.042Z,14.24
2022-10-08T01:59:32.889Z,14.30
2022-10-08T02:02:38.264Z,14.36
2022-10-08T02:05:50.773Z,14.26
2022-10-08T02:08:56.897Z,14.22
2022-10-08T02:12:02.619Z,14.24
2022-10-08T02:15:12.410Z,14.33
2022-10-08T02:18:23.397Z,14.26
2022-10-08T02:21:30.491Z,13.98
2022-10-08T02:24:45.417Z,13.83
2022-10-08T02:28:21.300Z,13.86
2022-10-08T02:31:35.302Z,13.88
2022-10-08T02:34:51.312Z,13.72
2022-10-08T02:38:05.576Z,13.70
2022-10-08T02:41:13.667Z,13.84
2022-10-08T02:44:37.174Z,13.99
2022-10-08T02:47:46.754Z,13.87
2022-10-08T02:50:54.533Z,13.79
2022-10-08T02:54:02.983Z,13.67
2022-10-08T02:57:13.782Z,13.56
2022-10-08T03:00:19.700Z,13.65
2022-10-08T03:03:35.874Z,13.83
2022-10-08T03:06:41.964Z,13.74
2022-10-08T03:09:49.022Z,13.73
2022-10-08T03:13:01.946Z,13.63
2022-10-08T03:16:11.980Z,13.69
2022-10-08T03:19:18.767Z,13.55
2022-10-08T03:22:25.221Z,13.64
2022-10-08T03:25:30.634Z,13.66
2022-10-08T03:28:36.101Z,13.60
2022-10-08T03:31:41.356Z,13.74
2022-10-08T03:34:46.983Z,13.58
2022-10-08T03:37:53.830Z,13.46
2022-10-08T03:40:59.683Z,13.38
2022-10-08T03:44:09.612Z,13.31
2022-10-08T03:47:15.540Z,13.22
2022-10-08T03:50:22.385Z,13.24
2022-10-08T03:53:32.212Z,13.23
2022-10-08T03:56:37.323Z,13.17
2022-10-08T03:59:42.591Z,13.07
2022-10-08T04:02:51.390Z,12.97
2022-10-08T04:05:58.208Z,13.12
2022-10-08T04:09:03.871Z,13.10
2022-10-08T04:12:09.211Z,13.19
2022-10-08T04:15:14.974Z,13.25
2022-10-08T04:18:20.611Z,13.29
2022-10-08T04:21:26.350Z,13.20
2022-10-08T04:24:32.001Z,13.12
2022-10-08T04:27:37.652Z,13.14
2022-10-08T04:30:43.276Z,13.19
2022-10-08T04:33:48.531Z,13.14
2022-10-08T04:36:54.045Z,13.10
2022-10-08T04:39:59.986Z,13.12
2022-10-08T04:43:05.281Z,13.22
2022-10-08T04:46:14.021Z,13.40
2022-10-08T04:49:19.965Z,13.35
2022-10-08T04:52:25.223Z,13.36
2022-10-08T04:55:31.366Z,13.20
2022-10-08T04:58:36.878Z,13.08
2022-10-08T05:01:42.139Z,13.23
2022-10-08T05:04:47.409Z,13.19
2022-10-08T05:07:56.840Z,12.99
2022-10-08T05:11:02.133Z,13.15
2022-10-08T05:14:10.448Z,13.17
2022-10-08T05:17:15.775Z,13.15
2022-10-08T05:20:21.276Z,13.26
2022-10-08T05:23:27.781Z,13.21
2022-10-08T05:26:56.772Z,12.81
2022-10-08T05:30:02.716Z,12.86
2022-10-08T05:33:08.254Z,12.84
2022-10-08T05:36:34.670Z,12.90
2022-10-08T05:39:40.207Z,12.88
2022-10-08T05:42:45.440Z,12.90
2022-10-08T05:45:51.691Z,12.95
2022-10-08T05:48:59.505Z,12.82
2022-10-08T05:52:04.952Z,12.85
2022-10-08T05:55:11.163Z,12.95
2022-10-08T05:58:16.340Z,13.06
2022-10-08T06:01:25.555Z,13.20
2022-10-08T06:04:31.229Z,13.27
2022-10-08T06:07:36.662Z,12.97
2022-10-08T06:10:55.557Z,13.19
2022-10-08T06:14:02.676Z,13.23
2022-10-08T06:17:07.575Z,13.36
2022-10-08T06:20:12.893Z,13.37
2022-10-08T06:23:19.452Z,13.47
2022-10-08T06:26:33.040Z,13.65
2022-10-08T06:29:40.689Z,13.43
2022-10-08T06:32:46.246Z,13.58
2022-10-08T06:35:51.729Z,13.66
2022-10-08T06:39:00.413Z,13.70
2022-10-08T06:42:05.696Z,13.93
2022-10-08T06:45:16.126Z,13.86
2022-10-08T06:48:21.702Z,14.02
2022-10-08T06:51:27.458Z,14.20
2022-10-08T06:54:33.428Z,14.31
2022-10-08T06:57:38.695Z,14.31
2022-10-08T07:00:44.222Z,14.26
2022-10-08T07:03:55.251Z,14.46
2022-10-08T07:07:00.448Z,14.57
2022-10-08T07:10:06.380Z,14.67
2022-10-08T07:13:11.656Z,14.68
2022-10-08T07:16:21.251Z,14.84
2022-10-08T07:19:27.169Z,14.85
2022-10-08T07:22:32.507Z,15.04
2022-10-08T07:25:37.795Z,15.05
2022-10-08T07:28:50.591Z,15.15
2022-10-08T07:31:56.234Z,15.28
2022-10-08T07:35:01.879Z,15.21
2022-10-08T07:38:07.138Z,15.36
2022-10-08T07:41:13.435Z,15.51
2022-10-08T07:44:18.945Z,15.60
2022-10-08T07:47:24.212Z,15.62
2022-10-08T07:50:29.340Z,15.74
2022-10-08T07:53:35.822Z,15.84
2022-10-08T07:56:41.452Z,16.09
2022-10-08T07:59:46.360Z,16.07
2022-10-08T08:02:51.463Z,16.10
2022-10-08T08:06:09.730Z,16.23
2022-10-08T08:09:16.763Z,16.33
2022-10-08T08:12:22.324Z,16.41
2022-10-08T08:15:27.291Z,16.44
2022-10-08T08:18:35.654Z,16.58
2022-10-08T08:21:41.046Z,16.90
2022-10-08T08:24:45.984Z,17.00
2022-10-08T08:27:51.078Z,17.21
2022-10-08T08:31:17.181Z,17.34
2022-10-08T08:34:25.225Z,17.34
2022-10-08T08:37:30.412Z,17.42
2022-10-08T08:40:35.302Z,17.54
2022-10-08T08:43:40.244Z,17.87
2022-10-08T08:46:54.763Z,17.92
2022-10-08T08:50:19.812Z,18.10
2022-10-08T08:53:25.761Z,17.93
2022-10-08T08:56:33.267Z,18.09
2022-10-08T08:59:45.424Z,18.15
2022-10-08T09:03:04.724Z,18.33
2022-10-08T09:06:14.940Z,18.36
2022-10-08T09:09:30.237Z,18.50
2022-10-08T09:12:37.536Z,18.58
2022-10-08T09:15:43.076Z,18.59
2022-10-08T09:18:50.590Z,18.62
2022-10-08T09:21:56.065Z,18.79
2022-10-08T09:25:06.287Z,18.78
2022-10-08T09:28:11.869Z,18.97
2022-10-08T09:31:44.833Z,18.82
2022-10-08T09:34:49.889Z,18.84
2022-10-08T09:37:58.947Z,19.04
2022-10-08T09:41:19.855Z,19.24
2022-10-08T09:44:25.095Z,19.33
2022-10-08T09:47:33.834Z,19.39
2022-10-08T09:50:39.193Z,19.30
2022-10-08T09:53:52.549Z,19.25
2022-10-08T09:57:00.492Z,19.40
2022-10-08T10:00:08.077Z,19.50
2022-10-08T10:03:19.802Z,19.63
2022-10-08T10:06:28.935Z,19.65
2022-10-08T10:09:34.171Z,19.85
2022-10-08T10:12:44.262Z,19.86
2022-10-08T10:15:54.133Z,19.91
2022-10-08T10:19:10.046Z,19.81
2022-10-08T10:22:22.396Z,20.00
2022-10-08T10:25:30.914Z,19.89
2022-10-08T10:28:53.376Z,19.99
2022-10-08T10:32:29.654Z,19.94
2022-10-08T10:35:48.233Z,20.11
2022-10-08T10:39:22.381Z,20.28
2022-10-08T10:42:37.083Z,20.41
2022-10-08T10:45:48.833Z,20.48
2022-10-08T10:48:56.773Z,20.27
2022-10-08T10:52:05.283Z,20.43
2022-10-08T10:55:22.794Z,20.74
2022-10-08T10:58:37.264Z,20.66
2022-10-08T11:01:51.926Z,20.76
2022-10-08T11:05:18.173Z,20.76
2022-10-08T11:08:34.347Z,20.77
2022-10-08T11:11:52.708Z,20.95
2022-10-08T11:15:09.787Z,20.99
2022-10-08T11:19:08.610Z,21.07
2022-10-08T11:22:47.217Z,21.06
2022-10-08T11:26:21.938Z,21.00
2022-10-08T11:29:47.252Z,21.12
2022-10-08T11:32:57.402Z,21.21
2022-10-08T11:36:23.887Z,21.27
2022-10-08T11:39:42.459Z,21.28
2022-10-08T11:43:03.625Z,21.33
2022-10-08T11:46:31.775Z,21.45
2022-10-08T11:49:37.202Z,21.47
2022-10-08T11:52:42.946Z,21.44
2022-10-08T11:55:54.946Z,21.60
2022-10-08T11:59:33.181Z,21.78
2022-10-08T12:02:43.553Z,21.69
2022-10-08T12:05:56.481Z,21.80
2022-10-08T12:09:07.791Z,21.80
2022-10-08T12:12:14.510Z,21.97
2022-10-08T12:15:25.609Z,22.09
2022-10-08T12:18:39.251Z,22.39
2022-10-08T12:21:49.880Z,22.30
2022-10-08T12:24:59.593Z,22.19
2022-10-08T12:28:20.426Z,22.35
2022-10-08T12:31:29.453Z,22.36
2022-10-08T12:34:34.825Z,22.34
2022-10-08T12:37:42.903Z,22.23
2022-10-08T12:41:19.712Z,22.30
2022-10-08T12:44:38.922Z,22.37
2022-10-08T12:47:50.663Z,22.32
2022-10-08T12:51:13.121Z,22.11
2022-10-08T12:54:22.156Z,22.10
2022-10-08T12:57:30.678Z,22.24
2022-10-08T13:00:36.567Z,22.21
2022-10-08T13:03:41.920Z,22.37
2022-10-08T13:06:49.124Z,22.56
2022-10-08T13:09:59.614Z,22.62
2022-10-08T13:13:26.560Z,22.47
2022-10-08T13:16:47.101Z,22.40
2022-10-08T13:20:08.049Z,22.50
2022-10-08T13:23:34.325Z,22.42
2022-10-08T13:26:52.683Z,22.75
2022-10-08T13:30:00.293Z,22.60
2022-10-08T13:33:12.443Z,22.70
2022-10-08T13:36:23.707Z,22.81
2022-10-08T13:39:38.313Z,22.89
2022-10-08T13:42:49.594Z,22.90
2022-10-08T13:45:55.109Z,22.88
2022-10-08T13:49:00.430Z,22.79
2022-10-08T13:52:06.725Z,22.95
2022-10-08T13:55:24.576Z,23.02
2022-10-08T13:58:30.209Z,22.82
2022-10-08T14:01:35.244Z,22.88
2022-10-08T14:04:40.661Z,22.89
2022-10-08T14:07:49.691Z,22.72
2022-10-08T14:10:59.681Z,22.84
2022-10-08T14:14:05.778Z,22.86
2022-10-08T14:17:10.936Z,22.82
2022-10-08T14:20:17.382Z,22.96
2022-10-08T14:23:23.231Z,22.82
2022-10-08T14:26:30.410Z,22.88
2022-10-08T14:29:36.151Z,22.80
2022-10-08T14:32:42.514Z,22.84
2022-10-08T14:35:52.870Z,22.84
2022-10-08T14:38:58.145Z,22.88
2022-10-08T14:42:04.277Z,23.03
2022-10-08T14:45:10.815Z,22.98
2022-10-08T14:48:16.158Z,22.85
2022-10-08T14:51:21.541Z,22.85
2022-10-08T14:54:28.448Z,22.71
2022-10-08T14:57:34.398Z,22.73
2022-10-08T15:00:40.414Z,22.83
2022-10-08T15:03:46.165Z,22.66
2022-10-08T15:06:51.621Z,22.65
2022-10-08T15:09:56.957Z,22.64
2022-10-08T15:13:01.933Z,22.61
2022-10-08T15:16:12.067Z,22.52
2022-10-08T15:19:19.859Z,22.39
2022-10-08T15:22:28.712Z,22.39
2022-10-08T15:25:34.206Z,22.35
2022-10-08T15:28:39.419Z,22.26
2022-10-08T15:31:45.238Z,22.17
2022-10-08T15:34:50.328Z,22.09
2022-10-08T15:37:55.725Z,21.95
2022-10-08T15:41:04.390Z,21.86
2022-10-08T15:44:18.731Z,21.73
2022-10-08T15:47:24.364Z,21.63
2022-10-08T15:50:29.678Z,21.50
2022-10-08T15:53:36.985Z,21.34
2022-10-08T15:56:42.422Z,21.28
2022-10-08T15:59:47.951Z,21.19
2022-10-08T16:02:56.248Z,21.15
2022-10-08T16:06:01.964Z,21.09
2022-10-08T16:09:07.535Z,20.94
2022-10-08T16:12:13.012Z,20.86
2022-10-08T16:15:18.615Z,20.76
2022-10-08T16:18:23.918Z,20.58
2022-10-08T16:21:31.399Z,20.58
2022-10-08T16:24:36.854Z,20.43
2022-10-08T16:27:42.063Z,20.38
2022-10-08T16:30:47.429Z,20.29
2022-10-08T16:34:01.293Z,20.17
2022-10-08T16:37:06.541Z,20.18
2022-10-08T16:40:12.361Z,20.10
2022-10-08T16:43:18.487Z,20.08
2022-10-08T16:46:34.056Z,19.88
2022-10-08T16:49:40.347Z,19.87
2022-10-08T16:52:45.895Z,19.81
2022-10-08T16:55:51.626Z,19.82
2022-10-08T16:58:59.610Z,19.76
2022-10-08T17:02:05.071Z,19.73
2022-10-08T17:05:10.649Z,19.71
2022-10-08T17:08:16.231Z,19.66
2022-10-08T17:11:22.902Z,19.65
2022-10-08T17:14:29.679Z,19.62
2022-10-08T17:17:35.378Z,19.61
2022-10-08T17:20:41.765Z,19.60
2022-10-08T17:23:47.347Z,19.41
2022-10-08T17:26:52.469Z,19.41
2022-10-08T17:29:58.160Z,19.42
2022-10-08T17:33:03.444Z,19.33
2022-10-08T17:36:14.252Z,19.41
2022-10-08T17:39:21.313Z,19.35
2022-10-08T17:42:26.668Z,19.34
2022-10-08T17:45:31.772Z,19.29
2022-10-08T17:48:37.000Z,19.27
2022-10-08T17:51:42.151Z,19.27
2022-10-08T17:54:47.453Z,19.26
2022-10-08T17:57:52.506Z,19.16
2022-10-08T18:01:03.543Z,19.12
2022-10-08T18:04:14.111Z,19.04
2022-10-08T18:07:19.374Z,19.01
2022-10-08T18:10:24.555Z,18.98
2022-10-08T18:13:29.558Z,18.93
2022-10-08T18:16:34.906Z,18.99
2022-10-08T18:19:40.437Z,19.05
2022-10-08T18:22:46.497Z,19.04
2022-10-08T18:25:54.003Z,19.06
2022-10-08T18:29:02.087Z,19.06
2022-10-08T18:32:07.822Z,19.07
2022-10-08T18:35:13.305Z,19.11
2022-10-08T18:38:18.725Z,19.13
2022-10-08T18:41:45.537Z,19.19
2022-10-08T18:44:50.746Z,19.17
2022-10-08T18:47:55.792Z,19.15
2022-10-08T18:51:13.183Z,19.12
2022-10-08T18:54:18.314Z,19.08
2022-10-08T18:57:23.708Z,19.19
2022-10-08T19:00:29.319Z,19.11
2022-10-08T19:03:35.080Z,18.81
2022-10-08T19:06:42.655Z,18.92
2022-10-08T19:09:48.312Z,18.88
2022-10-08T19:12:53.758Z,18.92
2022-10-08T19:16:03.694Z,18.88
2022-10-08T19:19:16.584Z,18.88
2022-10-08T19:22:23.621Z,18.88
2022-10-08T19:25:30.282Z,18.81
2022-10-08T19:28:37.683Z,18.84
2022-10-08T19:31:43.521Z,18.74
2022-10-08T19:34:48.673Z,18.79
2022-10-08T19:37:53.845Z,18.74
2022-10-08T19:40:58.939Z,18.71
2022-10-08T19:44:04.432Z,18.65
2022-10-08T19:47:10.073Z,18.68
2022-10-08T19:50:15.829Z,18.63
2022-10-08T19:53:22.190Z,18.57
2022-10-08T19:56:29.233Z,18.51
2022-10-08T19:59:34.300Z,18.46
2022-10-08T20:02:39.416Z,18.56
2022-10-08T20:05:44.622Z,18.44
2022-10-08T20:08:50.177Z,18.44
2022-10-08T20:11:55.902Z,18.52
2022-10-08T20:15:01.300Z,18.50
2022-10-08T20:18:06.804Z,18.49
2022-10-08T20:21:13.045Z,18.46
2022-10-08T20:24:20.226Z,18.48
2022-10-08T20:27:25.812Z,18.45
2022-10-08T20:30:31.269Z,18.38
2022-10-08T20:33:36.848Z,18.36
2022-10-08T20:36:42.288Z,18.34
2022-10-08T20:39:47.643Z,18.41
2022-10-08T20:42:53.154Z,18.36
2022-10-08T20:46:03.628Z,18.33
2022-10-08T20:49:12.296Z,18.32
2022-10-08T20:52:17.537Z,18.26
2022-10-08T20:55:22.956Z,18.27
2022-10-08T20:58:29.608Z,18.40
2022-10-08T21:01:38.762Z,18.28
2022-10-08T21:04:44.230Z,18.22
2022-10-08T21:07:49.782Z,18.25
2022-10-08T21:10:55.607Z,18.24
2022-10-08T21:14:02.123Z,18.28
2022-10-08T21:17:07.861Z,18.23
2022-10-08T21:20:13.385Z,18.27
2022-10-08T21:23:18.798Z,18.27
2022-10-08T21:26:26.721Z,18.29
2022-10-08T21:29:32.144Z,18.24
2022-10-08T21:32:37.913Z,18.27
2022-10-08T21:35:43.678Z,18.27
2022-10-08T21:38:50.261Z,18.18
2022-10-08T21:41:55.614Z,18.21
2022-10-08T21:45:01.629Z,18.27
2022-10-08T21:48:06.711Z,18.26
2022-10-08T21:51:18.209Z,18.32
2022-10-08T21:54:23.740Z,18.24
2022-10-08T21:57:29.221Z,18.26
2022-10-08T22:00:34.784Z,18.24
2022-10-08T22:03:40.115Z,18.31
2022-10-08T22:06:52.084Z,18.28
2022-10-08T22:09:57.722Z,18.27
2022-10-08T22:13:02.930Z,18.24
2022-10-08T22:16:10.491Z,18.25
2022-10-08T22:19:16.473Z,18.29
2022-10-08T22:22:22.215Z,18.25
2022-10-08T22:25:27.910Z,18.28
2022-10-08T22:28:34.855Z,18.29
2022-10-08T22:31:41.669Z,18.28
2022-10-08T22:34:47.557Z,18.29
2022-10-08T22:37:53.014Z,18.29
2022-10-08T22:41:06.683Z,18.32
2022-10-08T22:44:12.442Z,18.30
2022-10-08T22:47:17.926Z,18.36
2022-10-08T22:50:23.747Z,18.39
2022-10-08T22:53:29.808Z,18.35
2022-10-08T22:56:35.625Z,18.31
2022-10-08T22:59:41.186Z,18.34
2022-10-08T23:02:46.855Z,18.36
2022-10-08T23:06:02.809Z,18.30
2022-10-08T23:09:13.062Z,18.31
2022-10-08T23:12:18.652Z,18.37
2022-10-08T23:15:24.571Z,18.30
2022-10-08T23:18:33.085Z,18.25
2022-10-08T23:21:38.954Z,18.30
2022-10-08T23:24:47.020Z,18.20
2022-10-08T23:27:52.593Z,18.23
2022-10-08T23:31:26.079Z,18.18
2022-10-08T23:34:31.588Z,18.25
2022-10-08T23:37:36.756Z,18.20
2022-10-08T23:40:42.548Z,18.21
2022-10-08T23:43:50.279Z,18.12
2022-10-08T23:46:56.160Z,18.16
2022-10-08T23:50:01.939Z,18.15
2022-10-08T23:53:07.744Z,18.19
2022-10-08T23:56:14.270Z,18.18
2022-10-08T23:59:19.739Z,18.18
